PWSweather.com
Personal Weather Stations
Station Observations
KTXPLANO70
Kemper Estates, Plano, TX

Kemper EstatesPlano, TX

Lat: 33.0674, Lon: -96.7659

Elevation: 737

Station Type: Davis Vantage Pro2

http://www.dallasdawg.com

High Low Average
Temperature 94.2°F34.6°C 74.9°F23.8°C 84.4°F29.1°C
Dew Point 77.4°F25.2°C 65.8°F18.8°C 71.3°F21.8°C
Winds 10.4 mph 16.7 kmh Calm Calm 6.0 mph E9.7 kmh E
Wind Gusts 18.4 mph29.6 kmh -- 10.0 mph16.1 kmh
Humidity 77% 51% 65%
Pressure 29.87 in1011.5 mb 29.70 in1005.8 mb -
Precipitation 0.00 in0.0 mm - -
Hour Temp Dew Point Humidity Winds Wind Gusts Pressure Precip Precip Rate Daily Precip Total
12:00 AM 87.5°F30.8°C 73.8°F23.2°C 64% 3.5 mph SSE5.6 kmh SSE 6.9 mph11.1 kmh 29.71 in1006.1 mb - 0.00 in0.0 mm 0.00 in0.0 mm
12:10 AM 87.2°F30.7°C 73.6°F23.1°C 64% 5.8 mph SE9.3 kmh SE 6.9 mph11.1 kmh 29.70 in1005.8 mb - 0.00 in0.0 mm 0.00 in0.0 mm
12:15 AM 87.0°F30.6°C 73.8°F23.2°C 65% 4.6 mph SE7.4 kmh SE 9.2 mph14.8 kmh 29.70 in1005.8 mb - 0.00 in0.0 mm 0.00 in0.0 mm
12:20 AM 86.9°F30.5°C 73.7°F23.2°C 65% 4.6 mph SE7.4 kmh SE 8.1 mph13.0 kmh 29.70 in1005.8 mb - 0.00 in0.0 mm 0.00 in0.0 mm
12:25 AM 86.8°F30.4°C 73.6°F23.1°C 65% 5.8 mph SSE9.3 kmh SSE 11.5 mph18.5 kmh 29.70 in1005.8 mb - 0.00 in0.0 mm 0.00 in0.0 mm
12:30 AM 86.7°F30.4°C 74.0°F23.3°C 66% 4.6 mph SE7.4 kmh SE 11.5 mph18.5 kmh 29.70 in1005.8 mb - 0.00 in0.0 mm 0.00 in0.0 mm
12:35 AM 86.7°F30.4°C 74.0°F23.3°C 66% 4.6 mph SE7.4 kmh SE 9.2 mph14.8 kmh 29.70 in1005.8 mb - 0.00 in0.0 mm 0.00 in0.0 mm
12:40 AM 86.5°F30.3°C 73.8°F23.2°C 66% 4.6 mph SSE7.4 kmh SSE 8.1 mph13.0 kmh 29.70 in1005.8 mb - 0.00 in0.0 mm 0.00 in0.0 mm
12:45 AM 86.3°F30.2°C 74.0°F23.3°C 67% 6.9 mph SE11.1 kmh SE 9.2 mph14.8 kmh 29.69 in1005.4 mb - 0.00 in0.0 mm 0.00 in0.0 mm
12:50 AM 86.2°F30.1°C 73.9°F23.3°C 67% 4.6 mph SE7.4 kmh SE 8.1 mph13.0 kmh 29.69 in1005.4 mb - 0.00 in0.0 mm 0.00 in0.0 mm
12:55 AM 86.1°F30.1°C 73.9°F23.3°C 67% 3.5 mph SE5.6 kmh SE 5.8 mph9.3 kmh 29.70 in1005.8 mb - 0.00 in0.0 mm 0.00 in0.0 mm
01:00 AM 85.9°F29.9°C 73.7°F23.2°C 67% 4.6 mph SSE7.4 kmh SSE 6.9 mph11.1 kmh 29.70 in1005.8 mb - 0.00 in0.0 mm 0.00 in0.0 mm
01:10 AM 85.7°F29.8°C 73.9°F23.3°C 68% 2.3 mph SE3.7 kmh SE 11.5 mph18.5 kmh 29.70 in1005.8 mb - 0.00 in0.0 mm 0.00 in0.0 mm
01:15 AM 85.7°F29.8°C 73.9°F23.3°C 68% 5.8 mph SE9.3 kmh SE 9.2 mph14.8 kmh 29.70 in1005.8 mb - 0.00 in0.0 mm 0.00 in0.0 mm
01:20 AM 85.5°F29.7°C 73.7°F23.2°C 68% 4.6 mph SE7.4 kmh SE 8.1 mph13.0 kmh 29.70 in1005.8 mb - 0.00 in0.0 mm 0.00 in0.0 mm
01:25 AM 85.4°F29.7°C 74.1°F23.4°C 69% 3.5 mph SSE5.6 kmh SSE 11.5 mph18.5 kmh 29.70 in1005.8 mb - 0.00 in0.0 mm 0.00 in0.0 mm
01:30 AM 85.2°F29.6°C 73.9°F23.3°C 69% 4.6 mph SE7.4 kmh SE 4.6 mph7.4 kmh 29.70 in1005.8 mb - 0.00 in0.0 mm 0.00 in0.0 mm
01:35 AM 85.1°F29.5°C 73.8°F23.2°C 69% 4.6 mph SE7.4 kmh SE 5.8 mph9.3 kmh 29.70 in1005.8 mb - 0.00 in0.0 mm 0.00 in0.0 mm
01:40 AM 85.0°F29.4°C 73.7°F23.2°C 69% 4.6 mph SSE7.4 kmh SSE 11.5 mph18.5 kmh 29.70 in1005.8 mb - 0.00 in0.0 mm 0.00 in0.0 mm
01:45 AM 84.9°F29.4°C 73.6°F23.1°C 69% 5.8 mph SSE9.3 kmh SSE 11.5 mph18.5 kmh 29.70 in1005.8 mb - 0.00 in0.0 mm 0.00 in0.0 mm
01:50 AM 84.9°F29.4°C 74.0°F23.3°C 70% 3.5 mph SSE5.6 kmh SSE 6.9 mph11.1 kmh 29.70 in1005.8 mb - 0.00 in0.0 mm 0.00 in0.0 mm
01:55 AM 84.7°F29.3°C 73.8°F23.2°C 70% 2.3 mph SE3.7 kmh SE 4.6 mph7.4 kmh 29.70 in1005.8 mb - 0.00 in0.0 mm 0.00 in0.0 mm
02:00 AM 84.5°F29.2°C 74.1°F23.4°C 71% 3.5 mph SE5.6 kmh SE 4.6 mph7.4 kmh 29.71 in1006.1 mb - 0.00 in0.0 mm 0.00 in0.0 mm
02:10 AM 84.2°F29.0°C 73.7°F23.2°C 71% Calm Calm 2.3 mph3.7 kmh 29.73 in1006.8 mb - 0.00 in0.0 mm 0.00 in0.0 mm
02:15 AM 84.1°F28.9°C 74.1°F23.4°C 72% 1.2 mph SW1.9 kmh SW 3.5 mph5.6 kmh 29.74 in1007.1 mb - 0.00 in0.0 mm 0.00 in0.0 mm
02:20 AM 83.8°F28.8°C 73.8°F23.2°C 72% Calm Calm -- 29.75 in1007.5 mb - 0.00 in0.0 mm 0.00 in0.0 mm
02:25 AM 83.5°F28.6°C 73.9°F23.3°C 73% Calm Calm 1.2 mph1.9 kmh 29.76 in1007.8 mb - 0.00 in0.0 mm 0.00 in0.0 mm
02:30 AM 83.2°F28.4°C 73.6°F23.1°C 73% Calm Calm 1.2 mph1.9 kmh 29.76 in1007.8 mb - 0.00 in0.0 mm 0.00 in0.0 mm
02:35 AM 83.1°F28.4°C 74.0°F23.3°C 74% 1.2 mph SW1.9 kmh SW 1.2 mph1.9 kmh 29.76 in1007.8 mb - 0.00 in0.0 mm 0.00 in0.0 mm
02:40 AM 83.1°F28.4°C 73.9°F23.3°C 74% Calm Calm 2.3 mph3.7 kmh 29.75 in1007.5 mb - 0.00 in0.0 mm 0.00 in0.0 mm
02:45 AM 83.1°F28.4°C 73.9°F23.3°C 74% Calm Calm -- 29.75 in1007.5 mb - 0.00 in0.0 mm 0.00 in0.0 mm
02:50 AM 82.9°F28.3°C 73.8°F23.2°C 74% Calm Calm -- 29.76 in1007.8 mb - 0.00 in0.0 mm 0.00 in0.0 mm
02:55 AM 83.0°F28.3°C 73.9°F23.3°C 74% Calm Calm 3.5 mph5.6 kmh 29.77 in1008.1 mb - 0.00 in0.0 mm 0.00 in0.0 mm
03:00 AM 83.6°F28.7°C 74.0°F23.3°C 73% 3.5 mph NW5.6 kmh NW 5.8 mph9.3 kmh 29.78 in1008.5 mb - 0.00 in0.0 mm 0.00 in0.0 mm
03:10 AM 84.1°F28.9°C 73.7°F23.2°C 71% 5.8 mph NW9.3 kmh NW 12.7 mph20.4 kmh 29.79 in1008.8 mb - 0.00 in0.0 mm 0.00 in0.0 mm
03:15 AM 83.0°F28.3°C 71.3°F21.8°C 68% 5.8 mph NNE9.3 kmh NNE 10.4 mph16.7 kmh 29.79 in1008.8 mb - 0.00 in0.0 mm 0.00 in0.0 mm
03:20 AM 82.0°F27.8°C 71.3°F21.8°C 70% 4.6 mph NNE7.4 kmh NNE 4.6 mph7.4 kmh 29.79 in1008.8 mb - 0.00 in0.0 mm 0.00 in0.0 mm
03:25 AM 81.6°F27.6°C 70.4°F21.3°C 69% 6.9 mph N11.1 kmh N 10.4 mph16.7 kmh 29.80 in1009.1 mb - 0.00 in0.0 mm 0.00 in0.0 mm
03:30 AM 80.6°F27.0°C 68.7°F20.4°C 67% 6.9 mph 11.1 kmh 11.5 mph18.5 kmh 29.79 in1008.8 mb - 0.00 in0.0 mm 0.00 in0.0 mm
03:35 AM 79.7°F26.5°C 67.8°F19.9°C 67% 9.2 mph N14.8 kmh N 12.7 mph20.4 kmh 29.80 in1009.1 mb - 0.00 in0.0 mm 0.00 in0.0 mm
03:40 AM 79.1°F26.2°C 67.6°F19.8°C 68% 4.6 mph NE7.4 kmh NE 9.2 mph14.8 kmh 29.79 in1008.8 mb - 0.00 in0.0 mm 0.00 in0.0 mm
03:45 AM 78.6°F25.9°C 67.5°F19.7°C 69% 6.9 mph NNE11.1 kmh NNE 11.5 mph18.5 kmh 29.80 in1009.1 mb - 0.00 in0.0 mm 0.00 in0.0 mm
03:50 AM 78.1°F25.6°C 67.1°F19.5°C 69% 9.2 mph NNE14.8 kmh NNE 15.0 mph24.1 kmh 29.80 in1009.1 mb - 0.00 in0.0 mm 0.00 in0.0 mm
03:55 AM 77.7°F25.4°C 67.2°F19.6°C 70% 10.4 mph NNE16.7 kmh NNE 17.3 mph27.8 kmh 29.80 in1009.1 mb - 0.00 in0.0 mm 0.00 in0.0 mm
04:00 AM 77.5°F25.3°C 66.9°F19.4°C 70% 5.8 mph N9.3 kmh N 9.2 mph14.8 kmh 29.79 in1008.8 mb - 0.00 in0.0 mm 0.00 in0.0 mm
04:10 AM 77.1°F25.1°C 67.0°F19.4°C 71% 5.8 mph NE9.3 kmh NE 10.4 mph16.7 kmh 29.79 in1008.8 mb - 0.00 in0.0 mm 0.00 in0.0 mm
04:15 AM 76.9°F24.9°C 66.8°F19.3°C 71% 5.8 mph NE9.3 kmh NE 11.5 mph18.5 kmh 29.79 in1008.8 mb - 0.00 in0.0 mm 0.00 in0.0 mm
04:20 AM 76.7°F24.8°C 66.6°F19.2°C 71% 8.1 mph NE13.0 kmh NE 11.5 mph18.5 kmh 29.79 in1008.8 mb - 0.00 in0.0 mm 0.00 in0.0 mm
04:25 AM 76.6°F24.8°C 66.5°F19.2°C 71% 5.8 mph NE9.3 kmh NE 8.1 mph13.0 kmh 29.79 in1008.8 mb - 0.00 in0.0 mm 0.00 in0.0 mm
04:30 AM 76.4°F24.7°C 66.3°F19.1°C 71% 8.1 mph NE13.0 kmh NE 12.7 mph20.4 kmh 29.80 in1009.1 mb - 0.00 in0.0 mm 0.00 in0.0 mm
04:35 AM 76.2°F24.6°C 66.5°F19.2°C 72% 8.1 mph NE13.0 kmh NE 11.5 mph18.5 kmh 29.79 in1008.8 mb - 0.00 in0.0 mm 0.00 in0.0 mm
04:40 AM 76.1°F24.5°C 66.4°F19.1°C 72% 6.9 mph NE11.1 kmh NE 11.5 mph18.5 kmh 29.80 in1009.1 mb - 0.00 in0.0 mm 0.00 in0.0 mm
04:45 AM 76.0°F24.4°C 66.3°F19.1°C 72% 5.8 mph NE9.3 kmh NE 9.2 mph14.8 kmh 29.79 in1008.8 mb - 0.00 in0.0 mm 0.00 in0.0 mm
04:50 AM 75.9°F24.4°C 66.2°F19.0°C 72% 8.1 mph NE13.0 kmh NE 9.2 mph14.8 kmh 29.79 in1008.8 mb - 0.00 in0.0 mm 0.00 in0.0 mm
04:55 AM 75.8°F24.3°C 66.1°F18.9°C 72% 9.2 mph NE14.8 kmh NE 11.5 mph18.5 kmh 29.80 in1009.1 mb - 0.00 in0.0 mm 0.00 in0.0 mm
05:00 AM 75.6°F24.2°C 65.9°F18.8°C 72% 6.9 mph NE11.1 kmh NE 9.2 mph14.8 kmh 29.80 in1009.1 mb - 0.00 in0.0 mm 0.00 in0.0 mm
05:10 AM 75.5°F24.2°C 65.8°F18.8°C 72% 6.9 mph NE11.1 kmh NE 10.4 mph16.7 kmh 29.79 in1008.8 mb - 0.00 in0.0 mm 0.00 in0.0 mm
05:15 AM 75.4°F24.1°C 66.1°F18.9°C 73% 5.8 mph ENE9.3 kmh ENE 8.1 mph13.0 kmh 29.79 in1008.8 mb - 0.00 in0.0 mm 0.00 in0.0 mm
05:20 AM 75.4°F24.1°C 66.1°F18.9°C 73% 5.8 mph E9.3 kmh E 10.4 mph16.7 kmh 29.80 in1009.1 mb - 0.00 in0.0 mm 0.00 in0.0 mm
05:25 AM 75.3°F24.1°C 66.1°F18.9°C 73% 3.5 mph NE5.6 kmh NE 3.5 mph5.6 kmh 29.79 in1008.8 mb - 0.00 in0.0 mm 0.00 in0.0 mm
05:30 AM 75.3°F24.1°C 66.0°F18.9°C 73% 8.1 mph ENE13.0 kmh ENE 11.5 mph18.5 kmh 29.79 in1008.8 mb - 0.00 in0.0 mm 0.00 in0.0 mm
05:35 AM 75.2°F24.0°C 65.9°F18.8°C 73% 4.6 mph ENE7.4 kmh ENE 8.1 mph13.0 kmh 29.79 in1008.8 mb - 0.00 in0.0 mm 0.00 in0.0 mm
05:40 AM 75.1°F23.9°C 66.2°F19.0°C 74% 8.1 mph E13.0 kmh E 10.4 mph16.7 kmh 29.78 in1008.5 mb - 0.00 in0.0 mm 0.00 in0.0 mm
05:45 AM 75.1°F23.9°C 66.2°F19.0°C 74% 4.6 mph E7.4 kmh E 13.8 mph22.2 kmh 29.77 in1008.1 mb - 0.00 in0.0 mm 0.00 in0.0 mm
05:50 AM 75.1°F23.9°C 66.2°F19.0°C 74% 4.6 mph E7.4 kmh E 9.2 mph14.8 kmh 29.77 in1008.1 mb - 0.00 in0.0 mm 0.00 in0.0 mm
05:55 AM 75.0°F23.9°C 66.5°F19.2°C 75% 6.9 mph ESE11.1 kmh ESE 8.1 mph13.0 kmh 29.77 in1008.1 mb - 0.00 in0.0 mm 0.00 in0.0 mm
06:00 AM 74.9°F23.8°C 66.5°F19.2°C 75% 4.6 mph ESE7.4 kmh ESE 10.4 mph16.7 kmh 29.77 in1008.1 mb - 0.00 in0.0 mm 0.00 in0.0 mm
06:10 AM 74.9°F23.8°C 66.4°F19.1°C 75% 5.8 mph E9.3 kmh E 9.2 mph14.8 kmh 29.76 in1007.8 mb - 0.00 in0.0 mm 0.00 in0.0 mm
06:15 AM 75.0°F23.9°C 66.5°F19.2°C 75% 5.8 mph ENE9.3 kmh ENE 12.7 mph20.4 kmh 29.77 in1008.1 mb - 0.00 in0.0 mm 0.00 in0.0 mm
06:20 AM 75.1°F23.9°C 66.6°F19.2°C 75% 3.5 mph E5.6 kmh E 3.5 mph5.6 kmh 29.78 in1008.5 mb - 0.00 in0.0 mm 0.00 in0.0 mm
06:25 AM 75.1°F23.9°C 66.6°F19.2°C 75% 4.6 mph E7.4 kmh E 8.1 mph13.0 kmh 29.77 in1008.1 mb - 0.00 in0.0 mm 0.00 in0.0 mm
06:30 AM 75.0°F23.9°C 66.6°F19.2°C 75% 4.6 mph E7.4 kmh E 6.9 mph11.1 kmh 29.78 in1008.5 mb - 0.00 in0.0 mm 0.00 in0.0 mm
06:35 AM 75.0°F23.9°C 66.6°F19.2°C 75% 5.8 mph ENE9.3 kmh ENE 9.2 mph14.8 kmh 29.78 in1008.5 mb - 0.00 in0.0 mm 0.00 in0.0 mm
06:40 AM 75.1°F23.9°C 66.6°F19.2°C 75% 3.5 mph ENE5.6 kmh ENE 8.1 mph13.0 kmh 29.79 in1008.8 mb - 0.00 in0.0 mm 0.00 in0.0 mm
06:45 AM 75.0°F23.9°C 66.5°F19.2°C 75% 3.5 mph NE5.6 kmh NE 8.1 mph13.0 kmh 29.79 in1008.8 mb - 0.00 in0.0 mm 0.00 in0.0 mm
06:50 AM 74.9°F23.8°C 66.5°F19.2°C 75% 5.8 mph NE9.3 kmh NE 6.9 mph11.1 kmh 29.79 in1008.8 mb - 0.00 in0.0 mm 0.00 in0.0 mm
06:55 AM 75.0°F23.9°C 66.6°F19.2°C 75% 3.5 mph ENE5.6 kmh ENE 4.6 mph7.4 kmh 29.79 in1008.8 mb - 0.00 in0.0 mm 0.00 in0.0 mm
07:00 AM 75.0°F23.9°C 66.6°F19.2°C 75% 4.6 mph NE7.4 kmh NE 6.9 mph11.1 kmh 29.80 in1009.1 mb - 0.00 in0.0 mm 0.00 in0.0 mm
07:10 AM 75.1°F23.9°C 66.2°F19.0°C 74% 5.8 mph NE9.3 kmh NE 8.1 mph13.0 kmh 29.81 in1009.5 mb - 0.00 in0.0 mm 0.00 in0.0 mm
07:15 AM 75.1°F23.9°C 66.6°F19.2°C 75% 4.6 mph NE7.4 kmh NE 10.4 mph16.7 kmh 29.81 in1009.5 mb - 0.00 in0.0 mm 0.00 in0.0 mm
07:20 AM 75.3°F24.1°C 66.8°F19.3°C 75% 3.5 mph NE5.6 kmh NE 8.1 mph13.0 kmh 29.82 in1009.8 mb - 0.00 in0.0 mm 0.00 in0.0 mm
07:25 AM 75.4°F24.1°C 66.9°F19.4°C 75% 2.3 mph NE3.7 kmh NE 6.9 mph11.1 kmh 29.82 in1009.8 mb - 0.00 in0.0 mm 0.00 in0.0 mm
07:30 AM 75.4°F24.1°C 67.3°F19.6°C 76% 2.3 mph ENE3.7 kmh ENE 6.9 mph11.1 kmh 29.83 in1010.2 mb - 0.00 in0.0 mm 0.00 in0.0 mm
07:35 AM 75.4°F24.1°C 67.3°F19.6°C 76% 4.6 mph NE7.4 kmh NE 8.1 mph13.0 kmh 29.83 in1010.2 mb - 0.00 in0.0 mm 0.00 in0.0 mm
07:40 AM 75.5°F24.2°C 67.0°F19.4°C 75% 5.8 mph NE9.3 kmh NE 9.2 mph14.8 kmh 29.83 in1010.2 mb - 0.00 in0.0 mm 0.00 in0.0 mm
07:45 AM 75.5°F24.2°C 67.4°F19.7°C 76% 3.5 mph NNE5.6 kmh NNE 6.9 mph11.1 kmh 29.83 in1010.2 mb - 0.00 in0.0 mm 0.00 in0.0 mm
07:50 AM 75.5°F24.2°C 67.0°F19.4°C 75% 3.5 mph NE5.6 kmh NE 4.6 mph7.4 kmh 29.83 in1010.2 mb - 0.00 in0.0 mm 0.00 in0.0 mm
07:55 AM 75.6°F24.2°C 67.1°F19.5°C 75% 5.8 mph NE9.3 kmh NE 8.1 mph13.0 kmh 29.84 in1010.5 mb - 0.00 in0.0 mm 0.00 in0.0 mm
08:00 AM 75.7°F24.3°C 67.2°F19.6°C 75% 4.6 mph NE7.4 kmh NE 5.8 mph9.3 kmh 29.84 in1010.5 mb - 0.00 in0.0 mm 0.00 in0.0 mm
08:10 AM 75.7°F24.3°C 66.8°F19.3°C 74% 3.5 mph NE5.6 kmh NE 4.6 mph7.4 kmh 29.84 in1010.5 mb - 0.00 in0.0 mm 0.00 in0.0 mm
08:15 AM 75.7°F24.3°C 66.8°F19.3°C 74% 4.6 mph ENE7.4 kmh ENE 8.1 mph13.0 kmh 29.85 in1010.8 mb - 0.00 in0.0 mm 0.00 in0.0 mm
08:20 AM 75.8°F24.3°C 66.9°F19.4°C 74% 3.5 mph ENE5.6 kmh ENE 9.2 mph14.8 kmh 29.85 in1010.8 mb - 0.00 in0.0 mm 0.00 in0.0 mm
08:25 AM 76.0°F24.4°C 67.1°F19.5°C 74% 5.8 mph E9.3 kmh E 8.1 mph13.0 kmh 29.84 in1010.5 mb - 0.00 in0.0 mm 0.00 in0.0 mm
08:30 AM 76.3°F24.6°C 67.4°F19.7°C 74% 3.5 mph ENE5.6 kmh ENE 6.9 mph11.1 kmh 29.84 in1010.5 mb - 0.00 in0.0 mm 0.00 in0.0 mm
08:35 AM 76.4°F24.7°C 67.9°F19.9°C 75% 4.6 mph NE7.4 kmh NE 5.8 mph9.3 kmh 29.85 in1010.8 mb - 0.00 in0.0 mm 0.00 in0.0 mm
08:40 AM 76.6°F24.8°C 67.2°F19.6°C 73% 5.8 mph ENE9.3 kmh ENE 9.2 mph14.8 kmh 29.85 in1010.8 mb - 0.00 in0.0 mm 0.00 in0.0 mm
08:45 AM 76.4°F24.7°C 67.5°F19.7°C 74% 5.8 mph NE9.3 kmh NE 8.1 mph13.0 kmh 29.85 in1010.8 mb - 0.00 in0.0 mm 0.00 in0.0 mm
08:50 AM 76.9°F24.9°C 67.6°F19.8°C 73% 3.5 mph NE5.6 kmh NE 3.5 mph5.6 kmh 29.85 in1010.8 mb - 0.00 in0.0 mm 0.00 in0.0 mm
08:55 AM 77.8°F25.4°C 68.4°F20.2°C 73% 5.8 mph NE9.3 kmh NE 9.2 mph14.8 kmh 29.86 in1011.2 mb - 0.00 in0.0 mm 0.00 in0.0 mm
09:00 AM 77.5°F25.3°C 68.2°F20.1°C 73% 3.5 mph ENE5.6 kmh ENE 8.1 mph13.0 kmh 29.86 in1011.2 mb - 0.00 in0.0 mm 0.00 in0.0 mm
09:10 AM 76.7°F24.8°C 67.4°F19.7°C 73% 4.6 mph NE7.4 kmh NE 10.4 mph16.7 kmh 29.86 in1011.2 mb - 0.00 in0.0 mm 0.00 in0.0 mm
09:15 AM 76.1°F24.5°C 67.2°F19.6°C 74% 6.9 mph ENE11.1 kmh ENE 10.4 mph16.7 kmh 29.87 in1011.5 mb - 0.00 in0.0 mm 0.00 in0.0 mm
09:20 AM 75.8°F24.3°C 67.3°F19.6°C 75% 5.8 mph NE9.3 kmh NE 5.8 mph9.3 kmh 29.86 in1011.2 mb - 0.00 in0.0 mm 0.00 in0.0 mm
09:25 AM 75.7°F24.3°C 67.2°F19.6°C 75% 6.9 mph NE11.1 kmh NE 11.5 mph18.5 kmh 29.86 in1011.2 mb - 0.00 in0.0 mm 0.00 in0.0 mm
09:30 AM 75.5°F24.2°C 67.4°F19.7°C 76% 6.9 mph ENE11.1 kmh ENE 8.1 mph13.0 kmh 29.86 in1011.2 mb - 0.00 in0.0 mm 0.00 in0.0 mm
09:35 AM 75.7°F24.3°C 67.6°F19.8°C 76% 5.8 mph NE9.3 kmh NE 10.4 mph16.7 kmh 29.86 in1011.2 mb - 0.00 in0.0 mm 0.00 in0.0 mm
09:40 AM 76.1°F24.5°C 67.6°F19.8°C 75% 6.9 mph NE11.1 kmh NE 11.5 mph18.5 kmh 29.86 in1011.2 mb - 0.00 in0.0 mm 0.00 in0.0 mm
09:45 AM 75.8°F24.3°C 68.1°F20.1°C 77% 8.1 mph NE13.0 kmh NE 10.4 mph16.7 kmh 29.86 in1011.2 mb - 0.00 in0.0 mm 0.00 in0.0 mm
09:50 AM 75.5°F24.2°C 67.8°F19.9°C 77% 8.1 mph NE13.0 kmh NE 10.4 mph16.7 kmh 29.86 in1011.2 mb - 0.00 in0.0 mm 0.00 in0.0 mm
09:55 AM 75.7°F24.3°C 67.9°F19.9°C 77% 8.1 mph NE13.0 kmh NE 11.5 mph18.5 kmh 29.86 in1011.2 mb - 0.00 in0.0 mm 0.00 in0.0 mm
10:00 AM 75.6°F24.2°C 67.9°F19.9°C 77% 6.9 mph NE11.1 kmh NE 11.5 mph18.5 kmh 29.86 in1011.2 mb - 0.00 in0.0 mm 0.00 in0.0 mm
10:10 AM 76.0°F24.4°C 68.3°F20.2°C 77% 6.9 mph NE11.1 kmh NE 10.4 mph16.7 kmh 29.86 in1011.2 mb - 0.00 in0.0 mm 0.00 in0.0 mm
10:15 AM 76.0°F24.4°C 68.3°F20.2°C 77% 6.9 mph NE11.1 kmh NE 11.5 mph18.5 kmh 29.86 in1011.2 mb - 0.00 in0.0 mm 0.00 in0.0 mm
10:20 AM 76.4°F24.7°C 68.6°F20.3°C 77% 8.1 mph NE13.0 kmh NE 9.2 mph14.8 kmh 29.86 in1011.2 mb - 0.00 in0.0 mm 0.00 in0.0 mm
10:25 AM 77.4°F25.2°C 68.9°F20.5°C 75% 9.2 mph ENE14.8 kmh ENE 11.5 mph18.5 kmh 29.86 in1011.2 mb - 0.00 in0.0 mm 0.00 in0.0 mm
10:30 AM 77.2°F25.1°C 68.7°F20.4°C 75% 6.9 mph NE11.1 kmh NE 11.5 mph18.5 kmh 29.86 in1011.2 mb - 0.00 in0.0 mm 0.00 in0.0 mm
10:35 AM 77.8°F25.4°C 68.8°F20.4°C 74% 6.9 mph ENE11.1 kmh ENE 11.5 mph18.5 kmh 29.86 in1011.2 mb - 0.00 in0.0 mm 0.00 in0.0 mm
10:40 AM 77.7°F25.4°C 69.2°F20.7°C 75% 6.9 mph E11.1 kmh E 11.5 mph18.5 kmh 29.86 in1011.2 mb - 0.00 in0.0 mm 0.00 in0.0 mm
10:45 AM 78.0°F25.6°C 69.0°F20.6°C 74% 8.1 mph NE13.0 kmh NE 12.7 mph20.4 kmh 29.86 in1011.2 mb - 0.00 in0.0 mm 0.00 in0.0 mm
10:50 AM 78.1°F25.6°C 69.9°F21.1°C 76% 6.9 mph ENE11.1 kmh ENE 11.5 mph18.5 kmh 29.86 in1011.2 mb - 0.00 in0.0 mm 0.00 in0.0 mm
10:55 AM 78.7°F25.9°C 70.1°F21.2°C 75% 8.1 mph E13.0 kmh E 13.8 mph22.2 kmh 29.86 in1011.2 mb - 0.00 in0.0 mm 0.00 in0.0 mm
11:00 AM 79.2°F26.2°C 69.8°F21.0°C 73% 8.1 mph NE13.0 kmh NE 11.5 mph18.5 kmh 29.86 in1011.2 mb - 0.00 in0.0 mm 0.00 in0.0 mm
11:10 AM 79.8°F26.6°C 70.8°F21.6°C 74% 5.8 mph NE9.3 kmh NE 8.1 mph13.0 kmh 29.86 in1011.2 mb - 0.00 in0.0 mm 0.00 in0.0 mm
11:15 AM 80.5°F26.9°C 71.9°F22.2°C 75% 3.5 mph ENE5.6 kmh ENE 5.8 mph9.3 kmh 29.86 in1011.2 mb - 0.00 in0.0 mm 0.00 in0.0 mm
11:20 AM 81.6°F27.6°C 72.5°F22.5°C 74% 4.6 mph NE7.4 kmh NE 8.1 mph13.0 kmh 29.86 in1011.2 mb - 0.00 in0.0 mm 0.00 in0.0 mm
11:25 AM 82.2°F27.9°C 71.8°F22.1°C 71% 9.2 mph NE14.8 kmh NE 12.7 mph20.4 kmh 29.86 in1011.2 mb - 0.00 in0.0 mm 0.00 in0.0 mm
11:30 AM 81.9°F27.7°C 72.0°F22.2°C 72% 6.9 mph NE11.1 kmh NE 12.7 mph20.4 kmh 29.85 in1010.8 mb - 0.00 in0.0 mm 0.00 in0.0 mm
11:35 AM 82.3°F27.9°C 72.4°F22.4°C 72% 5.8 mph NE9.3 kmh NE 10.4 mph16.7 kmh 29.85 in1010.8 mb - 0.00 in0.0 mm 0.00 in0.0 mm
11:40 AM 82.8°F28.2°C 72.4°F22.4°C 71% 6.9 mph ENE11.1 kmh ENE 10.4 mph16.7 kmh 29.85 in1010.8 mb - 0.00 in0.0 mm 0.00 in0.0 mm
11:45 AM 82.9°F28.3°C 73.0°F22.8°C 72% 6.9 mph NE11.1 kmh NE 10.4 mph16.7 kmh 29.85 in1010.8 mb - 0.00 in0.0 mm 0.00 in0.0 mm
11:50 AM 83.5°F28.6°C 72.7°F22.6°C 70% 5.8 mph NE9.3 kmh NE 11.5 mph18.5 kmh 29.85 in1010.8 mb - 0.00 in0.0 mm 0.00 in0.0 mm
11:55 AM 83.5°F28.6°C 73.5°F23.1°C 72% 9.2 mph E14.8 kmh E 11.5 mph18.5 kmh 29.84 in1010.5 mb - 0.00 in0.0 mm 0.00 in0.0 mm
12:00 PM 83.8°F28.8°C 73.8°F23.2°C 72% 6.9 mph ENE11.1 kmh ENE 10.4 mph16.7 kmh 29.84 in1010.5 mb - 0.00 in0.0 mm 0.00 in0.0 mm
12:10 PM 84.9°F29.4°C 74.5°F23.6°C 71% 8.1 mph ENE13.0 kmh ENE 11.5 mph18.5 kmh 29.84 in1010.5 mb - 0.00 in0.0 mm 0.00 in0.0 mm
12:15 PM 84.8°F29.3°C 75.2°F24.0°C 73% 5.8 mph NE9.3 kmh NE 12.7 mph20.4 kmh 29.83 in1010.2 mb - 0.00 in0.0 mm 0.00 in0.0 mm
12:20 PM 85.5°F29.7°C 75.5°F24.2°C 72% 5.8 mph ENE9.3 kmh ENE 12.7 mph20.4 kmh 29.83 in1010.2 mb - 0.00 in0.0 mm 0.00 in0.0 mm
12:25 PM 85.6°F29.8°C 74.7°F23.7°C 70% 5.8 mph E9.3 kmh E 6.9 mph11.1 kmh 29.83 in1010.2 mb - 0.00 in0.0 mm 0.00 in0.0 mm
12:30 PM 86.5°F30.3°C 76.0°F24.4°C 71% 4.6 mph E7.4 kmh E 10.4 mph16.7 kmh 29.82 in1009.8 mb - 0.00 in0.0 mm 0.00 in0.0 mm
12:35 PM 87.3°F30.7°C 76.3°F24.6°C 70% 6.9 mph ENE11.1 kmh ENE 10.4 mph16.7 kmh 29.82 in1009.8 mb - 0.00 in0.0 mm 0.00 in0.0 mm
12:40 PM 87.3°F30.7°C 76.3°F24.6°C 70% 3.5 mph SE5.6 kmh SE 9.2 mph14.8 kmh 29.82 in1009.8 mb - 0.00 in0.0 mm 0.00 in0.0 mm
12:45 PM 87.7°F30.9°C 75.8°F24.3°C 68% 6.9 mph E11.1 kmh E 10.4 mph16.7 kmh 29.82 in1009.8 mb - 0.00 in0.0 mm 0.00 in0.0 mm
12:50 PM 88.1°F31.2°C 76.2°F24.6°C 68% 5.8 mph E9.3 kmh E 9.2 mph14.8 kmh 29.81 in1009.5 mb - 0.00 in0.0 mm 0.00 in0.0 mm
12:55 PM 88.1°F31.2°C 76.7°F24.8°C 69% 5.8 mph E9.3 kmh E 8.1 mph13.0 kmh 29.80 in1009.1 mb - 0.00 in0.0 mm 0.00 in0.0 mm
01:00 PM 89.3°F31.8°C 76.9°F24.9°C 67% 4.6 mph ESE7.4 kmh ESE 13.8 mph22.2 kmh 29.80 in1009.1 mb - 0.00 in0.0 mm 0.00 in0.0 mm
01:10 PM 89.1°F31.7°C 76.7°F24.8°C 67% 4.6 mph SE7.4 kmh SE 6.9 mph11.1 kmh 29.79 in1008.8 mb - 0.00 in0.0 mm 0.00 in0.0 mm
01:15 PM 90.6°F32.6°C 76.8°F24.9°C 64% 6.9 mph S11.1 kmh S 11.5 mph18.5 kmh 29.79 in1008.8 mb - 0.00 in0.0 mm 0.00 in0.0 mm
01:20 PM 90.4°F32.4°C 76.6°F24.8°C 64% 5.8 mph SE9.3 kmh SE 9.2 mph14.8 kmh 29.79 in1008.8 mb - 0.00 in0.0 mm 0.00 in0.0 mm
01:25 PM 90.3°F32.4°C 76.4°F24.7°C 64% 6.9 mph E11.1 kmh E 11.5 mph18.5 kmh 29.79 in1008.8 mb - 0.00 in0.0 mm 0.00 in0.0 mm
01:30 PM 90.4°F32.4°C 76.6°F24.8°C 64% 6.9 mph E11.1 kmh E 12.7 mph20.4 kmh 29.78 in1008.5 mb - 0.00 in0.0 mm 0.00 in0.0 mm
01:35 PM 89.8°F32.1°C 76.9°F24.9°C 66% 6.9 mph ESE11.1 kmh ESE 10.4 mph16.7 kmh 29.78 in1008.5 mb - 0.00 in0.0 mm 0.00 in0.0 mm
01:40 PM 91.4°F33.0°C 77.0°F25.0°C 63% 6.9 mph SE11.1 kmh SE 13.8 mph22.2 kmh 29.78 in1008.5 mb - 0.00 in0.0 mm 0.00 in0.0 mm
01:45 PM 91.1°F32.8°C 77.2°F25.1°C 64% 5.8 mph ESE9.3 kmh ESE 6.9 mph11.1 kmh 29.78 in1008.5 mb - 0.00 in0.0 mm 0.00 in0.0 mm
01:50 PM 91.9°F33.3°C 77.0°F25.0°C 62% 4.6 mph SE7.4 kmh SE 10.4 mph16.7 kmh 29.77 in1008.1 mb - 0.00 in0.0 mm 0.00 in0.0 mm
01:55 PM 92.2°F33.4°C 76.9°F24.9°C 61% 5.8 mph SE9.3 kmh SE 11.5 mph18.5 kmh 29.77 in1008.1 mb - 0.00 in0.0 mm 0.00 in0.0 mm
02:00 PM 92.3°F33.5°C 77.4°F25.2°C 62% 4.6 mph ESE7.4 kmh ESE 12.7 mph20.4 kmh 29.76 in1007.8 mb - 0.00 in0.0 mm 0.00 in0.0 mm
02:10 PM 91.5°F33.1°C 76.6°F24.8°C 62% 6.9 mph E11.1 kmh E 8.1 mph13.0 kmh 29.76 in1007.8 mb - 0.00 in0.0 mm 0.00 in0.0 mm
02:15 PM 92.2°F33.4°C 76.3°F24.6°C 60% 6.9 mph ESE11.1 kmh ESE 12.7 mph20.4 kmh 29.76 in1007.8 mb - 0.00 in0.0 mm 0.00 in0.0 mm
02:20 PM 92.0°F33.3°C 76.7°F24.8°C 61% 9.2 mph ESE14.8 kmh ESE 18.4 mph29.6 kmh 29.76 in1007.8 mb - 0.00 in0.0 mm 0.00 in0.0 mm
02:25 PM 92.2°F33.4°C 76.3°F24.6°C 60% 9.2 mph SE14.8 kmh SE 13.8 mph22.2 kmh 29.75 in1007.5 mb - 0.00 in0.0 mm 0.00 in0.0 mm
02:30 PM 91.3°F32.9°C 76.0°F24.4°C 61% 6.9 mph E11.1 kmh E 13.8 mph22.2 kmh 29.75 in1007.5 mb - 0.00 in0.0 mm 0.00 in0.0 mm
02:35 PM 92.1°F33.4°C 76.2°F24.6°C 60% 9.2 mph ESE14.8 kmh ESE 15.0 mph24.1 kmh 29.75 in1007.5 mb - 0.00 in0.0 mm 0.00 in0.0 mm
02:40 PM 93.0°F33.9°C 76.6°F24.8°C 59% 8.1 mph ESE13.0 kmh ESE 13.8 mph22.2 kmh 29.75 in1007.5 mb - 0.00 in0.0 mm 0.00 in0.0 mm
02:45 PM 92.2°F33.4°C 75.3°F24.1°C 58% 10.4 mph ESE16.7 kmh ESE 16.1 mph25.9 kmh 29.74 in1007.1 mb - 0.00 in0.0 mm 0.00 in0.0 mm
02:50 PM 92.0°F33.3°C 75.7°F24.3°C 59% 6.9 mph E11.1 kmh E 10.4 mph16.7 kmh 29.74 in1007.1 mb - 0.00 in0.0 mm 0.00 in0.0 mm
02:55 PM 91.8°F33.2°C 75.4°F24.1°C 59% 8.1 mph ESE13.0 kmh ESE 10.4 mph16.7 kmh 29.74 in1007.1 mb - 0.00 in0.0 mm 0.00 in0.0 mm
03:00 PM 92.9°F33.8°C 75.9°F24.4°C 58% 6.9 mph ESE11.1 kmh ESE 12.7 mph20.4 kmh 29.74 in1007.1 mb - 0.00 in0.0 mm 0.00 in0.0 mm
03:10 PM 91.5°F33.1°C 75.2°F24.0°C 59% 3.5 mph ESE5.6 kmh ESE 6.9 mph11.1 kmh 29.74 in1007.1 mb - 0.00 in0.0 mm 0.00 in0.0 mm
03:15 PM 92.6°F33.7°C 75.1°F23.9°C 57% 4.6 mph SE7.4 kmh SE 11.5 mph18.5 kmh 29.73 in1006.8 mb - 0.00 in0.0 mm 0.00 in0.0 mm
03:20 PM 94.2°F34.6°C 74.4°F23.6°C 53% 5.8 mph SSE9.3 kmh SSE 11.5 mph18.5 kmh 29.73 in1006.8 mb - 0.00 in0.0 mm 0.00 in0.0 mm
03:25 PM 93.2°F34.0°C 73.0°F22.8°C 52% 3.5 mph S5.6 kmh S 3.5 mph5.6 kmh 29.73 in1006.8 mb - 0.00 in0.0 mm 0.00 in0.0 mm
03:30 PM 93.6°F34.2°C 73.4°F23.0°C 52% 8.1 mph SE13.0 kmh SE 10.4 mph16.7 kmh 29.73 in1006.8 mb - 0.00 in0.0 mm 0.00 in0.0 mm
03:35 PM 93.1°F33.9°C 73.4°F23.0°C 53% 5.8 mph SE9.3 kmh SE 12.7 mph20.4 kmh 29.73 in1006.8 mb - 0.00 in0.0 mm 0.00 in0.0 mm
03:40 PM 93.2°F34.0°C 74.1°F23.4°C 54% 8.1 mph SE13.0 kmh SE 10.4 mph16.7 kmh 29.73 in1006.8 mb - 0.00 in0.0 mm 0.00 in0.0 mm
03:45 PM 93.7°F34.3°C 74.0°F23.3°C 53% 4.6 mph SE7.4 kmh SE 11.5 mph18.5 kmh 29.73 in1006.8 mb - 0.00 in0.0 mm 0.00 in0.0 mm
03:50 PM 93.5°F34.2°C 73.2°F22.9°C 52% 5.8 mph SE9.3 kmh SE 10.4 mph16.7 kmh 29.73 in1006.8 mb - 0.00 in0.0 mm 0.00 in0.0 mm
03:55 PM 92.9°F33.8°C 72.7°F22.6°C 52% 4.6 mph SE7.4 kmh SE 11.5 mph18.5 kmh 29.73 in1006.8 mb - 0.00 in0.0 mm 0.00 in0.0 mm
04:00 PM 93.0°F33.9°C 74.5°F23.6°C 55% 5.8 mph SE9.3 kmh SE 12.7 mph20.4 kmh 29.73 in1006.8 mb - 0.00 in0.0 mm 0.00 in0.0 mm
04:10 PM 93.5°F34.2°C 73.2°F22.9°C 52% 4.6 mph SE7.4 kmh SE 12.7 mph20.4 kmh 29.73 in1006.8 mb - 0.00 in0.0 mm 0.00 in0.0 mm
04:15 PM 93.1°F33.9°C 73.5°F23.1°C 53% 8.1 mph SE13.0 kmh SE 11.5 mph18.5 kmh 29.73 in1006.8 mb - 0.00 in0.0 mm 0.00 in0.0 mm
04:20 PM 92.8°F33.8°C 73.2°F22.9°C 53% 6.9 mph ESE11.1 kmh ESE 11.5 mph18.5 kmh 29.73 in1006.8 mb - 0.00 in0.0 mm 0.00 in0.0 mm
04:25 PM 92.5°F33.6°C 72.9°F22.7°C 53% 6.9 mph SE11.1 kmh SE 11.5 mph18.5 kmh 29.73 in1006.8 mb - 0.00 in0.0 mm 0.00 in0.0 mm
04:30 PM 94.0°F34.4°C 73.1°F22.8°C 51% 9.2 mph SE14.8 kmh SE 12.7 mph20.4 kmh 29.73 in1006.8 mb - 0.00 in0.0 mm 0.00 in0.0 mm
04:35 PM 93.4°F34.1°C 72.6°F22.6°C 51% 8.1 mph SE13.0 kmh SE 15.0 mph24.1 kmh 29.73 in1006.8 mb - 0.00 in0.0 mm 0.00 in0.0 mm
04:40 PM 92.6°F33.7°C 72.4°F22.4°C 52% 3.5 mph SE5.6 kmh SE 9.2 mph14.8 kmh 29.73 in1006.8 mb - 0.00 in0.0 mm 0.00 in0.0 mm
04:45 PM 92.5°F33.6°C 72.9°F22.7°C 53% 5.8 mph ESE9.3 kmh ESE 11.5 mph18.5 kmh 29.73 in1006.8 mb - 0.00 in0.0 mm 0.00 in0.0 mm
04:50 PM 92.2°F33.4°C 73.1°F22.8°C 54% 6.9 mph SE11.1 kmh SE 10.4 mph16.7 kmh 29.73 in1006.8 mb - 0.00 in0.0 mm 0.00 in0.0 mm
04:55 PM 91.8°F33.2°C 72.8°F22.7°C 54% 6.9 mph SE11.1 kmh SE 11.5 mph18.5 kmh 29.73 in1006.8 mb - 0.00 in0.0 mm 0.00 in0.0 mm
05:00 PM 92.9°F33.8°C 73.2°F22.9°C 53% 10.4 mph ESE16.7 kmh ESE 15.0 mph24.1 kmh 29.73 in1006.8 mb - 0.00 in0.0 mm 0.00 in0.0 mm
05:10 PM 92.5°F33.6°C 72.9°F22.7°C 53% 5.8 mph E9.3 kmh E 11.5 mph18.5 kmh 29.73 in1006.8 mb - 0.00 in0.0 mm 0.00 in0.0 mm
05:15 PM 92.7°F33.7°C 73.0°F22.8°C 53% 9.2 mph SE14.8 kmh SE 11.5 mph18.5 kmh 29.73 in1006.8 mb - 0.00 in0.0 mm 0.00 in0.0 mm
05:20 PM 92.7°F33.7°C 72.5°F22.5°C 52% 4.6 mph SE7.4 kmh SE 11.5 mph18.5 kmh 29.72 in1006.4 mb - 0.00 in0.0 mm 0.00 in0.0 mm
05:25 PM 92.6°F33.7°C 72.4°F22.4°C 52% 5.8 mph SE9.3 kmh SE 12.7 mph20.4 kmh 29.72 in1006.4 mb - 0.00 in0.0 mm 0.00 in0.0 mm
05:30 PM 92.8°F33.8°C 72.1°F22.3°C 51% 4.6 mph ESE7.4 kmh ESE 6.9 mph11.1 kmh 29.72 in1006.4 mb - 0.00 in0.0 mm 0.00 in0.0 mm
05:35 PM 92.7°F33.7°C 71.9°F22.2°C 51% 5.8 mph SE9.3 kmh SE 9.2 mph14.8 kmh 29.72 in1006.4 mb - 0.00 in0.0 mm 0.00 in0.0 mm
05:40 PM 92.8°F33.8°C 72.0°F22.2°C 51% 4.6 mph E7.4 kmh E 11.5 mph18.5 kmh 29.71 in1006.1 mb - 0.00 in0.0 mm 0.00 in0.0 mm
05:45 PM 92.9°F33.8°C 72.7°F22.6°C 52% 5.8 mph ESE9.3 kmh ESE 8.1 mph13.0 kmh 29.71 in1006.1 mb - 0.00 in0.0 mm 0.00 in0.0 mm
05:50 PM 92.6°F33.7°C 71.8°F22.1°C 51% 4.6 mph SE7.4 kmh SE 10.4 mph16.7 kmh 29.71 in1006.1 mb - 0.00 in0.0 mm 0.00 in0.0 mm
05:55 PM 92.2°F33.4°C 72.0°F22.2°C 52% 8.1 mph SE13.0 kmh SE 11.5 mph18.5 kmh 29.71 in1006.1 mb - 0.00 in0.0 mm 0.00 in0.0 mm
06:00 PM 92.3°F33.5°C 72.1°F22.3°C 52% 4.6 mph SE7.4 kmh SE 6.9 mph11.1 kmh 29.71 in1006.1 mb - 0.00 in0.0 mm 0.00 in0.0 mm
06:10 PM 92.2°F33.4°C 71.5°F21.9°C 51% 8.1 mph SE13.0 kmh SE 15.0 mph24.1 kmh 29.71 in1006.1 mb - 0.00 in0.0 mm 0.00 in0.0 mm
06:15 PM 92.1°F33.4°C 71.4°F21.9°C 51% 6.9 mph E11.1 kmh E 15.0 mph24.1 kmh 29.71 in1006.1 mb - 0.00 in0.0 mm 0.00 in0.0 mm
06:20 PM 91.9°F33.3°C 71.7°F22.1°C 52% 8.1 mph ESE13.0 kmh ESE 15.0 mph24.1 kmh 29.71 in1006.1 mb - 0.00 in0.0 mm 0.00 in0.0 mm
06:25 PM 91.9°F33.3°C 71.8°F22.1°C 52% 5.8 mph SE9.3 kmh SE 6.9 mph11.1 kmh 29.71 in1006.1 mb - 0.00 in0.0 mm 0.00 in0.0 mm
06:30 PM 92.1°F33.4°C 71.4°F21.9°C 51% 8.1 mph E13.0 kmh E 12.7 mph20.4 kmh 29.71 in1006.1 mb - 0.00 in0.0 mm 0.00 in0.0 mm
06:35 PM 91.7°F33.2°C 71.0°F21.7°C 51% 8.1 mph SE13.0 kmh SE 11.5 mph18.5 kmh 29.71 in1006.1 mb - 0.00 in0.0 mm 0.00 in0.0 mm
06:40 PM 91.6°F33.1°C 71.4°F21.9°C 52% 4.6 mph E7.4 kmh E 8.1 mph13.0 kmh 29.71 in1006.1 mb - 0.00 in0.0 mm 0.00 in0.0 mm
06:45 PM 91.5°F33.1°C 71.4°F21.9°C 52% 6.9 mph SE11.1 kmh SE 10.4 mph16.7 kmh 29.71 in1006.1 mb - 0.00 in0.0 mm 0.00 in0.0 mm
06:50 PM 91.5°F33.1°C 71.4°F21.9°C 52% 5.8 mph ESE9.3 kmh ESE 10.4 mph16.7 kmh 29.71 in1006.1 mb - 0.00 in0.0 mm 0.00 in0.0 mm
06:55 PM 91.3°F32.9°C 71.8°F22.1°C 53% 6.9 mph ESE11.1 kmh ESE 11.5 mph18.5 kmh 29.71 in1006.1 mb - 0.00 in0.0 mm 0.00 in0.0 mm
07:00 PM 91.0°F32.8°C 71.5°F21.9°C 53% 9.2 mph E14.8 kmh E 9.2 mph14.8 kmh 29.71 in1006.1 mb - 0.00 in0.0 mm 0.00 in0.0 mm
07:10 PM 90.4°F32.4°C 71.5°F21.9°C 54% 8.1 mph ESE13.0 kmh ESE 12.7 mph20.4 kmh 29.71 in1006.1 mb - 0.00 in0.0 mm 0.00 in0.0 mm
07:15 PM 90.1°F32.3°C 71.2°F21.8°C 54% 5.8 mph ESE9.3 kmh ESE 8.1 mph13.0 kmh 29.72 in1006.4 mb - 0.00 in0.0 mm 0.00 in0.0 mm
07:20 PM 90.1°F32.3°C 71.2°F21.8°C 54% 8.1 mph E13.0 kmh E 11.5 mph18.5 kmh 29.72 in1006.4 mb - 0.00 in0.0 mm 0.00 in0.0 mm
07:25 PM 90.1°F32.3°C 71.2°F21.8°C 54% 4.6 mph E7.4 kmh E 10.4 mph16.7 kmh 29.72 in1006.4 mb - 0.00 in0.0 mm 0.00 in0.0 mm
07:30 PM 90.1°F32.3°C 71.2°F21.8°C 54% 6.9 mph ESE11.1 kmh ESE 6.9 mph11.1 kmh 29.72 in1006.4 mb - 0.00 in0.0 mm 0.00 in0.0 mm
07:35 PM 90.0°F32.2°C 71.7°F22.1°C 55% 5.8 mph SE9.3 kmh SE 11.5 mph18.5 kmh 29.72 in1006.4 mb - 0.00 in0.0 mm 0.00 in0.0 mm
07:40 PM 89.9°F32.2°C 71.5°F21.9°C 55% 4.6 mph ESE7.4 kmh ESE 6.9 mph11.1 kmh 29.72 in1006.4 mb - 0.00 in0.0 mm 0.00 in0.0 mm
07:45 PM 89.7°F32.1°C 71.4°F21.9°C 55% 5.8 mph SE9.3 kmh SE 9.2 mph14.8 kmh 29.72 in1006.4 mb - 0.00 in0.0 mm 0.00 in0.0 mm
07:50 PM 89.8°F32.1°C 71.5°F21.9°C 55% 5.8 mph E9.3 kmh E 11.5 mph18.5 kmh 29.72 in1006.4 mb - 0.00 in0.0 mm 0.00 in0.0 mm
07:55 PM 89.8°F32.1°C 71.5°F21.9°C 55% 6.9 mph E11.1 kmh E 12.7 mph20.4 kmh 29.72 in1006.4 mb - 0.00 in0.0 mm 0.00 in0.0 mm
08:00 PM 89.8°F32.1°C 71.5°F21.9°C 55% 5.8 mph SE9.3 kmh SE 10.4 mph16.7 kmh 29.72 in1006.4 mb - 0.00 in0.0 mm 0.00 in0.0 mm
08:10 PM 89.5°F31.9°C 71.2°F21.8°C 55% 5.8 mph ESE9.3 kmh ESE 12.7 mph20.4 kmh 29.72 in1006.4 mb - 0.00 in0.0 mm 0.00 in0.0 mm
08:15 PM 89.4°F31.9°C 71.2°F21.8°C 55% 3.5 mph ESE5.6 kmh ESE 6.9 mph11.1 kmh 29.71 in1006.1 mb - 0.00 in0.0 mm 0.00 in0.0 mm
08:20 PM 89.4°F31.9°C 71.1°F21.7°C 55% 5.8 mph ESE9.3 kmh ESE 11.5 mph18.5 kmh 29.71 in1006.1 mb - 0.00 in0.0 mm 0.00 in0.0 mm
08:25 PM 89.2°F31.8°C 71.5°F21.9°C 56% 6.9 mph ESE11.1 kmh ESE 13.8 mph22.2 kmh 29.71 in1006.1 mb - 0.00 in0.0 mm 0.00 in0.0 mm
08:30 PM 89.2°F31.8°C 71.4°F21.9°C 56% 6.9 mph SE11.1 kmh SE 11.5 mph18.5 kmh 29.72 in1006.4 mb - 0.00 in0.0 mm 0.00 in0.0 mm
08:35 PM 89.0°F31.7°C 71.3°F21.8°C 56% 6.9 mph ESE11.1 kmh ESE 11.5 mph18.5 kmh 29.72 in1006.4 mb - 0.00 in0.0 mm 0.00 in0.0 mm
08:40 PM 88.9°F31.6°C 71.7°F22.1°C 57% 5.8 mph ESE9.3 kmh ESE 9.2 mph14.8 kmh 29.71 in1006.1 mb - 0.00 in0.0 mm 0.00 in0.0 mm
08:45 PM 88.8°F31.6°C 71.6°F22.0°C 57% 5.8 mph ESE9.3 kmh ESE 9.2 mph14.8 kmh 29.71 in1006.1 mb - 0.00 in0.0 mm 0.00 in0.0 mm
08:50 PM 88.6°F31.4°C 71.9°F22.2°C 58% 5.8 mph SE9.3 kmh SE 11.5 mph18.5 kmh 29.71 in1006.1 mb - 0.00 in0.0 mm 0.00 in0.0 mm
08:55 PM 88.6°F31.4°C 71.9°F22.2°C 58% 5.8 mph E9.3 kmh E 15.0 mph24.1 kmh 29.71 in1006.1 mb - 0.00 in0.0 mm 0.00 in0.0 mm
09:00 PM 88.4°F31.3°C 71.7°F22.1°C 58% 4.6 mph ESE7.4 kmh ESE 4.6 mph7.4 kmh 29.71 in1006.1 mb - 0.00 in0.0 mm 0.00 in0.0 mm
09:10 PM 87.9°F31.1°C 71.8°F22.1°C 59% 4.6 mph ESE7.4 kmh ESE 6.9 mph11.1 kmh 29.71 in1006.1 mb - 0.00 in0.0 mm 0.00 in0.0 mm
09:15 PM 87.7°F30.9°C 72.1°F22.3°C 60% 5.8 mph ESE9.3 kmh ESE 15.0 mph24.1 kmh 29.71 in1006.1 mb - 0.00 in0.0 mm 0.00 in0.0 mm
09:20 PM 87.6°F30.9°C 72.0°F22.2°C 60% 5.8 mph ESE9.3 kmh ESE 9.2 mph14.8 kmh 29.71 in1006.1 mb - 0.00 in0.0 mm 0.00 in0.0 mm
09:25 PM 87.6°F30.9°C 72.0°F22.2°C 60% 3.5 mph ESE5.6 kmh ESE 9.2 mph14.8 kmh 29.72 in1006.4 mb - 0.00 in0.0 mm 0.00 in0.0 mm
09:30 PM 87.4°F30.8°C 71.8°F22.1°C 60% 9.2 mph ESE14.8 kmh ESE 12.7 mph20.4 kmh 29.72 in1006.4 mb - 0.00 in0.0 mm 0.00 in0.0 mm
09:35 PM 87.3°F30.7°C 71.8°F22.1°C 60% 5.8 mph E9.3 kmh E 10.4 mph16.7 kmh 29.72 in1006.4 mb - 0.00 in0.0 mm 0.00 in0.0 mm
09:40 PM 87.3°F30.7°C 72.2°F22.3°C 61% 4.6 mph E7.4 kmh E 8.1 mph13.0 kmh 29.72 in1006.4 mb - 0.00 in0.0 mm 0.00 in0.0 mm
09:45 PM 87.1°F30.6°C 72.1°F22.3°C 61% 4.6 mph E7.4 kmh E 10.4 mph16.7 kmh 29.71 in1006.1 mb - 0.00 in0.0 mm 0.00 in0.0 mm
09:50 PM 87.0°F30.6°C 71.9°F22.2°C 61% 5.8 mph SE9.3 kmh SE 10.4 mph16.7 kmh 29.72 in1006.4 mb - 0.00 in0.0 mm 0.00 in0.0 mm
09:55 PM 87.0°F30.6°C 72.4°F22.4°C 62% 6.9 mph E11.1 kmh E 12.7 mph20.4 kmh 29.72 in1006.4 mb - 0.00 in0.0 mm 0.00 in0.0 mm
10:00 PM 87.0°F30.6°C 72.4°F22.4°C 62% 8.1 mph E13.0 kmh E 15.0 mph24.1 kmh 29.72 in1006.4 mb - 0.00 in0.0 mm 0.00 in0.0 mm
10:10 PM 86.7°F30.4°C 72.1°F22.3°C 62% 6.9 mph SE11.1 kmh SE 10.4 mph16.7 kmh 29.73 in1006.8 mb - 0.00 in0.0 mm 0.00 in0.0 mm
10:15 PM 86.6°F30.3°C 72.5°F22.5°C 63% 8.1 mph ESE13.0 kmh ESE 16.1 mph25.9 kmh 29.73 in1006.8 mb - 0.00 in0.0 mm 0.00 in0.0 mm
10:20 PM 86.6°F30.3°C 72.5°F22.5°C 63% 6.9 mph E11.1 kmh E 11.5 mph18.5 kmh 29.73 in1006.8 mb - 0.00 in0.0 mm 0.00 in0.0 mm
10:25 PM 86.6°F30.3°C 72.5°F22.5°C 63% 6.9 mph SE11.1 kmh SE 12.7 mph20.4 kmh 29.73 in1006.8 mb - 0.00 in0.0 mm 0.00 in0.0 mm
10:30 PM 86.5°F30.3°C 72.4°F22.4°C 63% 4.6 mph SE7.4 kmh SE 9.2 mph14.8 kmh 29.75 in1007.5 mb - 0.00 in0.0 mm 0.00 in0.0 mm
10:35 PM 86.4°F30.2°C 72.7°F22.6°C 64% 4.6 mph ESE7.4 kmh ESE 10.4 mph16.7 kmh 29.75 in1007.5 mb - 0.00 in0.0 mm 0.00 in0.0 mm
10:40 PM 86.3°F30.2°C 72.7°F22.6°C 64% 4.6 mph ESE7.4 kmh ESE 10.4 mph16.7 kmh 29.75 in1007.5 mb - 0.00 in0.0 mm 0.00 in0.0 mm
10:45 PM 86.3°F30.2°C 72.7°F22.6°C 64% 5.8 mph ESE9.3 kmh ESE 8.1 mph13.0 kmh 29.75 in1007.5 mb - 0.00 in0.0 mm 0.00 in0.0 mm
10:50 PM 86.3°F30.2°C 72.2°F22.3°C 63% 4.6 mph SE7.4 kmh SE 10.4 mph16.7 kmh 29.75 in1007.5 mb - 0.00 in0.0 mm 0.00 in0.0 mm
10:55 PM 86.3°F30.2°C 72.2°F22.3°C 63% 3.5 mph SE5.6 kmh SE 10.4 mph16.7 kmh 29.75 in1007.5 mb - 0.00 in0.0 mm 0.00 in0.0 mm
11:00 PM 86.3°F30.2°C 72.2°F22.3°C 63% 6.9 mph SE11.1 kmh SE 13.8 mph22.2 kmh 29.75 in1007.5 mb - 0.00 in0.0 mm 0.00 in0.0 mm
11:10 PM 86.3°F30.2°C 72.2°F22.3°C 63% 5.8 mph ESE9.3 kmh ESE 6.9 mph11.1 kmh 29.75 in1007.5 mb - 0.00 in0.0 mm 0.00 in0.0 mm
11:15 PM 86.2°F30.1°C 72.1°F22.3°C 63% 5.8 mph SE9.3 kmh SE 12.7 mph20.4 kmh 29.75 in1007.5 mb - 0.00 in0.0 mm 0.00 in0.0 mm
11:20 PM 86.1°F30.1°C 72.0°F22.2°C 63% 4.6 mph SE7.4 kmh SE 8.1 mph13.0 kmh 29.75 in1007.5 mb - 0.00 in0.0 mm 0.00 in0.0 mm
11:25 PM 86.0°F30.0°C 72.0°F22.2°C 63% 6.9 mph SE11.1 kmh SE 11.5 mph18.5 kmh 29.76 in1007.8 mb - 0.00 in0.0 mm 0.00 in0.0 mm
11:30 PM 86.0°F30.0°C 71.5°F21.9°C 62% 5.8 mph SE9.3 kmh SE 5.8 mph9.3 kmh 29.77 in1008.1 mb - 0.00 in0.0 mm 0.00 in0.0 mm
11:35 PM 86.1°F30.1°C 71.6°F22.0°C 62% 6.9 mph SE11.1 kmh SE 11.5 mph18.5 kmh 29.77 in1008.1 mb - 0.00 in0.0 mm 0.00 in0.0 mm
11:40 PM 86.0°F30.0°C 71.5°F21.9°C 62% 4.6 mph SE7.4 kmh SE 6.9 mph11.1 kmh 29.77 in1008.1 mb - 0.00 in0.0 mm 0.00 in0.0 mm
11:45 PM 85.9°F29.9°C 71.8°F22.1°C 63% 2.3 mph SE3.7 kmh SE 10.4 mph16.7 kmh 29.77 in1008.1 mb - 0.00 in0.0 mm 0.00 in0.0 mm
11:50 PM 85.7°F29.8°C 71.7°F22.1°C 63% 3.5 mph SE5.6 kmh SE 11.5 mph18.5 kmh 29.77 in1008.1 mb - 0.00 in0.0 mm 0.00 in0.0 mm
11:55 PM 85.7°F29.8°C 71.7°F22.1°C 63% 5.8 mph SE9.3 kmh SE 8.1 mph13.0 kmh 29.77 in1008.1 mb - 0.00 in0.0 mm 0.00 in0.0 mm